sensor_id;sensor_type;location;lat;lon;timestamp;P1;durP1;ratioP1;P2;durP2;ratioP2
4210;SDS011;2119;48.828;12.396;2023-02-11T00:04:36;63.57;;;31.77;;
4210;SDS011;2119;48.828;12.396;2023-02-11T00:09:37;64.35;;;33.40;;
4210;SDS011;2119;48.828;12.396;2023-02-11T00:14:37;60.83;;;32.03;;
4210;SDS011;2119;48.828;12.396;2023-02-11T00:19:37;70.78;;;34.95;;
4210;SDS011;2119;48.828;12.396;2023-02-11T00:24:37;73.20;;;35.17;;
4210;SDS011;2119;48.828;12.396;2023-02-11T00:29:37;73.67;;;34.67;;
4210;SDS011;2119;48.828;12.396;2023-02-11T00:34:38;63.10;;;31.80;;
4210;SDS011;2119;48.828;12.396;2023-02-11T00:39:38;70.70;;;31.10;;
4210;SDS011;2119;48.828;12.396;2023-02-11T00:44:38;63.97;;;29.35;;
4210;SDS011;2119;48.828;12.396;2023-02-11T00:49:38;56.70;;;32.00;;
4210;SDS011;2119;48.828;12.396;2023-02-11T00:54:39;59.93;;;27.03;;
4210;SDS011;2119;48.828;12.396;2023-02-11T00:59:39;59.90;;;28.20;;
4210;SDS011;2119;48.828;12.396;2023-02-11T01:04:40;53.77;;;27.37;;
4210;SDS011;2119;48.828;12.396;2023-02-11T01:09:40;63.23;;;30.33;;
4210;SDS011;2119;48.828;12.396;2023-02-11T01:14:40;63.35;;;29.70;;
4210;SDS011;2119;48.828;12.396;2023-02-11T01:19:40;57.90;;;29.63;;
4210;SDS011;2119;48.828;12.396;2023-02-11T01:24:41;61.90;;;29.10;;
4210;SDS011;2119;48.828;12.396;2023-02-11T01:29:41;66.10;;;32.45;;
4210;SDS011;2119;48.828;12.396;2023-02-11T01:34:41;68.78;;;32.58;;
4210;SDS011;2119;48.828;12.396;2023-02-11T01:39:41;71.95;;;33.40;;
4210;SDS011;2119;48.828;12.396;2023-02-11T01:44:41;65.95;;;30.13;;
4210;SDS011;2119;48.828;12.396;2023-02-11T01:49:46;64.65;;;28.95;;
4210;SDS011;2119;48.828;12.396;2023-02-11T01:54:48;71.23;;;30.53;;
4210;SDS011;2119;48.828;12.396;2023-02-11T02:00:12;57.30;;;28.00;;
4210;SDS011;2119;48.828;12.396;2023-02-11T02:10:33;54.07;;;25.77;;
4210;SDS011;2119;48.828;12.396;2023-02-11T02:15:35;55.90;;;26.50;;
4210;SDS011;2119;48.828;12.396;2023-02-11T02:26:09;59.60;;;27.93;;
4210;SDS011;2119;48.828;12.396;2023-02-11T02:36:23;56.50;;;26.43;;
4210;SDS011;2119;48.828;12.396;2023-02-11T02:41:29;53.57;;;26.00;;
4210;SDS011;2119;48.828;12.396;2023-02-11T02:46:31;57.93;;;26.83;;
4210;SDS011;2119;48.828;12.396;2023-02-11T02:56:53;63.05;;;27.13;;
4210;SDS011;2119;48.828;12.396;2023-02-11T03:02:05;55.70;;;25.73;;
4210;SDS011;2119;48.828;12.396;2023-02-11T03:12:13;55.80;;;25.77;;
4210;SDS011;2119;48.828;12.396;2023-02-11T03:17:15;61.23;;;27.80;;
4210;SDS011;2119;48.828;12.396;2023-02-11T03:22:31;55.57;;;26.27;;
4210;SDS011;2119;48.828;12.396;2023-02-11T03:27:35;58.70;;;25.53;;
4210;SDS011;2119;48.828;12.396;2023-02-11T03:32:40;61.07;;;27.43;;
4210;SDS011;2119;48.828;12.396;2023-02-11T03:37:42;66.70;;;28.80;;
4210;SDS011;2119;48.828;12.396;2023-02-11T03:42:48;59.17;;;27.40;;
4210;SDS011;2119;48.828;12.396;2023-02-11T03:53:13;51.63;;;25.17;;
4210;SDS011;2119;48.828;12.396;2023-02-11T03:58:13;54.23;;;24.87;;
4210;SDS011;2119;48.828;12.396;2023-02-11T04:03:14;57.40;;;26.73;;
4210;SDS011;2119;48.828;12.396;2023-02-11T04:08:14;54.08;;;26.13;;
4210;SDS011;2119;48.828;12.396;2023-02-11T04:13:14;57.72;;;26.55;;
4210;SDS011;2119;48.828;12.396;2023-02-11T04:18:14;55.38;;;25.52;;
4210;SDS011;2119;48.828;12.396;2023-02-11T04:23:27;56.88;;;25.80;;
4210;SDS011;2119;48.828;12.396;2023-02-11T04:28:27;59.00;;;25.17;;
4210;SDS011;2119;48.828;12.396;2023-02-11T04:33:28;47.60;;;23.97;;
4210;SDS011;2119;48.828;12.396;2023-02-11T04:38:32;51.75;;;25.27;;
4210;SDS011;2119;48.828;12.396;2023-02-11T04:43:32;50.47;;;24.97;;
4210;SDS011;2119;48.828;12.396;2023-02-11T04:48:33;52.55;;;25.30;;
4210;SDS011;2119;48.828;12.396;2023-02-11T04:53:34;55.13;;;24.50;;
4210;SDS011;2119;48.828;12.396;2023-02-11T04:58:34;47.88;;;24.75;;
4210;SDS011;2119;48.828;12.396;2023-02-11T05:03:34;64.65;;;27.73;;
4210;SDS011;2119;48.828;12.396;2023-02-11T05:08:36;54.60;;;25.83;;
4210;SDS011;2119;48.828;12.396;2023-02-11T05:13:37;52.97;;;26.13;;
4210;SDS011;2119;48.828;12.396;2023-02-11T05:18:39;56.20;;;25.90;;
4210;SDS011;2119;48.828;12.396;2023-02-11T05:23:41;59.40;;;25.87;;
4210;SDS011;2119;48.828;12.396;2023-02-11T05:29:00;49.00;;;24.43;;
4210;SDS011;2119;48.828;12.396;2023-02-11T05:39:06;60.57;;;27.23;;
4210;SDS011;2119;48.828;12.396;2023-02-11T05:44:06;62.22;;;24.60;;
4210;SDS011;2119;48.828;12.396;2023-02-11T05:49:06;49.25;;;23.65;;
4210;SDS011;2119;48.828;12.396;2023-02-11T05:59:11;54.00;;;26.00;;
4210;SDS011;2119;48.828;12.396;2023-02-11T06:04:12;83.57;;;31.90;;
4210;SDS011;2119;48.828;12.396;2023-02-11T06:09:12;62.63;;;28.50;;
4210;SDS011;2119;48.828;12.396;2023-02-11T06:14:12;71.38;;;30.33;;
4210;SDS011;2119;48.828;12.396;2023-02-11T06:19:13;67.50;;;30.80;;
4210;SDS011;2119;48.828;12.396;2023-02-11T06:24:13;56.45;;;25.95;;
4210;SDS011;2119;48.828;12.396;2023-02-11T06:29:13;64.20;;;28.40;;
4210;SDS011;2119;48.828;12.396;2023-02-11T06:34:13;59.88;;;26.75;;
4210;SDS011;2119;48.828;12.396;2023-02-11T06:44:19;62.47;;;30.00;;
4210;SDS011;2119;48.828;12.396;2023-02-11T06:49:19;60.83;;;29.52;;
4210;SDS011;2119;48.828;12.396;2023-02-11T06:54:20;75.85;;;30.88;;
4210;SDS011;2119;48.828;12.396;2023-02-11T06:59:21;61.50;;;28.20;;
4210;SDS011;2119;48.828;12.396;2023-02-11T07:04:25;65.57;;;29.67;;
4210;SDS011;2119;48.828;12.396;2023-02-11T07:09:25;65.93;;;29.70;;
4210;SDS011;2119;48.828;12.396;2023-02-11T07:14:25;63.17;;;28.92;;
4210;SDS011;2119;48.828;12.396;2023-02-11T07:19:28;63.80;;;30.63;;
4210;SDS011;2119;48.828;12.396;2023-02-11T07:24:28;66.63;;;32.57;;
4210;SDS011;2119;48.828;12.396;2023-02-11T07:34:33;69.30;;;33.97;;
4210;SDS011;2119;48.828;12.396;2023-02-11T07:39:33;76.63;;;36.20;;
4210;SDS011;2119;48.828;12.396;2023-02-11T07:44:33;70.80;;;34.05;;
4210;SDS011;2119;48.828;12.396;2023-02-11T07:49:43;73.30;;;32.87;;
4210;SDS011;2119;48.828;12.396;2023-02-11T07:54:44;69.70;;;35.30;;
4210;SDS011;2119;48.828;12.396;2023-02-11T07:59:47;83.40;;;35.67;;
4210;SDS011;2119;48.828;12.396;2023-02-11T08:04:48;79.10;;;35.97;;
4210;SDS011;2119;48.828;12.396;2023-02-11T08:09:49;74.77;;;32.80;;
4210;SDS011;2119;48.828;12.396;2023-02-11T08:15:08;77.70;;;35.17;;
4210;SDS011;2119;48.828;12.396;2023-02-11T08:25:11;88.03;;;38.97;;
4210;SDS011;2119;48.828;12.396;2023-02-11T08:30:14;76.20;;;38.65;;
4210;SDS011;2119;48.828;12.396;2023-02-11T08:35:24;90.47;;;46.47;;
4210;SDS011;2119;48.828;12.396;2023-02-11T08:40:29;83.10;;;39.93;;
4210;SDS011;2119;48.828;12.396;2023-02-11T08:45:31;84.40;;;38.57;;
4210;SDS011;2119;48.828;12.396;2023-02-11T08:50:31;89.00;;;40.83;;
4210;SDS011;2119;48.828;12.396;2023-02-11T08:55:31;81.55;;;37.72;;
4210;SDS011;2119;48.828;12.396;2023-02-11T09:00:31;83.82;;;39.90;;
4210;SDS011;2119;48.828;12.396;2023-02-11T09:10:35;73.03;;;36.30;;
4210;SDS011;2119;48.828;12.396;2023-02-11T09:15:36;87.75;;;45.53;;
4210;SDS011;2119;48.828;12.396;2023-02-11T09:20:36;77.77;;;39.80;;
4210;SDS011;2119;48.828;12.396;2023-02-11T09:25:40;80.00;;;38.92;;
4210;SDS011;2119;48.828;12.396;2023-02-11T09:30:40;77.73;;;38.03;;
4210;SDS011;2119;48.828;12.396;2023-02-11T09:35:41;74.90;;;37.57;;
4210;SDS011;2119;48.828;12.396;2023-02-11T09:45:53;83.40;;;40.70;;
4210;SDS011;2119;48.828;12.396;2023-02-11T09:50:58;76.73;;;39.50;;
4210;SDS011;2119;48.828;12.396;2023-02-11T09:56:00;76.07;;;37.10;;
4210;SDS011;2119;48.828;12.396;2023-02-11T10:06:19;72.13;;;37.80;;
4210;SDS011;2119;48.828;12.396;2023-02-11T10:26:33;66.60;;;32.50;;
4210;SDS011;2119;48.828;12.396;2023-02-11T10:31:36;73.27;;;34.00;;
4210;SDS011;2119;48.828;12.396;2023-02-11T10:36:39;58.60;;;33.20;;
4210;SDS011;2119;48.828;12.396;2023-02-11T10:41:45;66.63;;;33.20;;
4210;SDS011;2119;48.828;12.396;2023-02-11T10:46:48;60.17;;;32.47;;
4210;SDS011;2119;48.828;12.396;2023-02-11T10:51:49;62.83;;;33.50;;
4210;SDS011;2119;48.828;12.396;2023-02-11T10:56:57;59.33;;;34.00;;
4210;SDS011;2119;48.828;12.396;2023-02-11T11:12:29;73.00;;;37.70;;
4210;SDS011;2119;48.828;12.396;2023-02-11T11:17:30;60.37;;;33.73;;
4210;SDS011;2119;48.828;12.396;2023-02-11T11:22:43;64.60;;;34.15;;
4210;SDS011;2119;48.828;12.396;2023-02-11T11:27:49;71.93;;;37.20;;
4210;SDS011;2119;48.828;12.396;2023-02-11T11:32:51;64.83;;;35.60;;
4210;SDS011;2119;48.828;12.396;2023-02-11T11:37:55;63.40;;;33.40;;
4210;SDS011;2119;48.828;12.396;2023-02-11T11:43:16;65.67;;;34.70;;
4210;SDS011;2119;48.828;12.396;2023-02-11T11:58:59;62.47;;;35.40;;
4210;SDS011;2119;48.828;12.396;2023-02-11T12:36:02;64.17;;;35.37;;
4210;SDS011;2119;48.828;12.396;2023-02-11T13:01:38;60.43;;;33.30;;
4210;SDS011;2119;48.828;12.396;2023-02-11T13:06:40;56.90;;;33.00;;
4210;SDS011;2119;48.828;12.396;2023-02-11T13:11:43;60.67;;;33.90;;
4210;SDS011;2119;48.828;12.396;2023-02-11T13:16:50;60.53;;;35.90;;
4210;SDS011;2119;48.828;12.396;2023-02-11T13:22:09;57.67;;;32.90;;
4210;SDS011;2119;48.828;12.396;2023-02-11T13:32:12;60.90;;;34.03;;
4210;SDS011;2119;48.828;12.396;2023-02-11T13:42:17;60.07;;;33.20;;
4210;SDS011;2119;48.828;12.396;2023-02-11T13:47:33;60.50;;;32.03;;
4210;SDS011;2119;48.828;12.396;2023-02-11T13:52:37;62.63;;;33.30;;
4210;SDS011;2119;48.828;12.396;2023-02-11T13:57:38;60.30;;;35.03;;
4210;SDS011;2119;48.828;12.396;2023-02-11T14:02:38;55.70;;;31.80;;
4210;SDS011;2119;48.828;12.396;2023-02-11T14:13:32;58.27;;;33.73;;
4210;SDS011;2119;48.828;12.396;2023-02-11T14:23:49;55.87;;;31.70;;
4210;SDS011;2119;48.828;12.396;2023-02-11T14:44:06;55.87;;;31.20;;
4210;SDS011;2119;48.828;12.396;2023-02-11T14:49:11;56.67;;;32.73;;
4210;SDS011;2119;48.828;12.396;2023-02-11T14:54:20;55.93;;;30.90;;
4210;SDS011;2119;48.828;12.396;2023-02-11T14:59:23;65.67;;;36.90;;
4210;SDS011;2119;48.828;12.396;2023-02-11T15:04:28;70.03;;;38.77;;
4210;SDS011;2119;48.828;12.396;2023-02-11T15:14:32;73.17;;;39.00;;
4210;SDS011;2119;48.828;12.396;2023-02-11T15:19:34;77.63;;;41.60;;
4210;SDS011;2119;48.828;12.396;2023-02-11T15:24:35;64.13;;;36.13;;
4210;SDS011;2119;48.828;12.396;2023-02-11T15:29:42;62.47;;;34.90;;
4210;SDS011;2119;48.828;12.396;2023-02-11T15:34:43;62.27;;;37.30;;
4210;SDS011;2119;48.828;12.396;2023-02-11T15:39:44;70.17;;;36.63;;
4210;SDS011;2119;48.828;12.396;2023-02-11T15:44:45;75.60;;;39.35;;
4210;SDS011;2119;48.828;12.396;2023-02-11T15:49:46;58.27;;;34.90;;
4210;SDS011;2119;48.828;12.396;2023-02-11T15:54:47;64.77;;;37.10;;
4210;SDS011;2119;48.828;12.396;2023-02-11T15:59:48;70.93;;;38.63;;
4210;SDS011;2119;48.828;12.396;2023-02-11T16:04:50;59.37;;;36.43;;
4210;SDS011;2119;48.828;12.396;2023-02-11T16:09:55;70.77;;;38.50;;
4210;SDS011;2119;48.828;12.396;2023-02-11T16:14:56;78.53;;;41.50;;
4210;SDS011;2119;48.828;12.396;2023-02-11T16:19:59;76.50;;;42.93;;
4210;SDS011;2119;48.828;12.396;2023-02-11T16:25:00;84.53;;;47.47;;
4210;SDS011;2119;48.828;12.396;2023-02-11T16:35:27;79.37;;;41.60;;
4210;SDS011;2119;48.828;12.396;2023-02-11T16:40:28;62.37;;;36.10;;
4210;SDS011;2119;48.828;12.396;2023-02-11T16:45:28;69.00;;;36.50;;
4210;SDS011;2119;48.828;12.396;2023-02-11T16:50:32;72.77;;;39.10;;
4210;SDS011;2119;48.828;12.396;2023-02-11T16:55:32;70.43;;;37.67;;
4210;SDS011;2119;48.828;12.396;2023-02-11T17:00:34;94.83;;;49.37;;
4210;SDS011;2119;48.828;12.396;2023-02-11T17:05:35;84.37;;;43.00;;
4210;SDS011;2119;48.828;12.396;2023-02-11T17:10:35;80.70;;;40.87;;
4210;SDS011;2119;48.828;12.396;2023-02-11T17:15:37;69.60;;;37.50;;
4210;SDS011;2119;48.828;12.396;2023-02-11T17:20:39;76.40;;;41.20;;
4210;SDS011;2119;48.828;12.396;2023-02-11T17:25:42;87.43;;;46.40;;
4210;SDS011;2119;48.828;12.396;2023-02-11T17:30:42;85.47;;;45.23;;
4210;SDS011;2119;48.828;12.396;2023-02-11T17:35:45;78.57;;;41.53;;
4210;SDS011;2119;48.828;12.396;2023-02-11T17:40:55;80.83;;;43.47;;
4210;SDS011;2119;48.828;12.396;2023-02-11T17:45:59;67.40;;;36.70;;
4210;SDS011;2119;48.828;12.396;2023-02-11T17:51:02;65.37;;;36.67;;
4210;SDS011;2119;48.828;12.396;2023-02-11T17:56:14;60.37;;;35.70;;
4210;SDS011;2119;48.828;12.396;2023-02-11T18:01:15;69.43;;;38.60;;
4210;SDS011;2119;48.828;12.396;2023-02-11T18:06:27;67.47;;;37.40;;
4210;SDS011;2119;48.828;12.396;2023-02-11T18:11:28;71.70;;;38.60;;
4210;SDS011;2119;48.828;12.396;2023-02-11T18:16:31;76.83;;;41.07;;
4210;SDS011;2119;48.828;12.396;2023-02-11T18:27:12;80.60;;;43.17;;
4210;SDS011;2119;48.828;12.396;2023-02-11T18:32:12;90.38;;;45.03;;
4210;SDS011;2119;48.828;12.396;2023-02-11T18:37:13;99.80;;;52.27;;
4210;SDS011;2119;48.828;12.396;2023-02-11T18:42:15;94.07;;;48.13;;
4210;SDS011;2119;48.828;12.396;2023-02-11T18:47:16;72.97;;;41.33;;
4210;SDS011;2119;48.828;12.396;2023-02-11T18:52:18;79.53;;;42.43;;
4210;SDS011;2119;48.828;12.396;2023-02-11T18:57:27;78.53;;;40.40;;
4210;SDS011;2119;48.828;12.396;2023-02-11T19:02:38;69.87;;;39.63;;
4210;SDS011;2119;48.828;12.396;2023-02-11T19:07:38;76.93;;;42.57;;
4210;SDS011;2119;48.828;12.396;2023-02-11T19:18:22;111.43;;;55.10;;
4210;SDS011;2119;48.828;12.396;2023-02-11T19:23:23;95.13;;;49.27;;
4210;SDS011;2119;48.828;12.396;2023-02-11T19:28:23;92.60;;;46.47;;
4210;SDS011;2119;48.828;12.396;2023-02-11T19:33:24;91.57;;;47.42;;
4210;SDS011;2119;48.828;12.396;2023-02-11T19:38:24;78.90;;;43.47;;
4210;SDS011;2119;48.828;12.396;2023-02-11T19:48:33;73.27;;;40.90;;
4210;SDS011;2119;48.828;12.396;2023-02-11T19:58:57;68.77;;;38.07;;
4210;SDS011;2119;48.828;12.396;2023-02-11T20:04:01;69.37;;;39.80;;
4210;SDS011;2119;48.828;12.396;2023-02-11T20:14:05;62.67;;;36.47;;
4210;SDS011;2119;48.828;12.396;2023-02-11T20:19:14;68.93;;;38.37;;
4210;SDS011;2119;48.828;12.396;2023-02-11T20:24:17;71.57;;;39.57;;
4210;SDS011;2119;48.828;12.396;2023-02-11T20:29:34;85.07;;;42.20;;
4210;SDS011;2119;48.828;12.396;2023-02-11T20:34:36;72.20;;;41.60;;
4210;SDS011;2119;48.828;12.396;2023-02-11T20:39:38;73.80;;;40.90;;
4210;SDS011;2119;48.828;12.396;2023-02-11T20:49:44;66.07;;;38.73;;
4210;SDS011;2119;48.828;12.396;2023-02-11T20:54:46;69.00;;;38.07;;
4210;SDS011;2119;48.828;12.396;2023-02-11T20:59:47;66.67;;;35.37;;
4210;SDS011;2119;48.828;12.396;2023-02-11T21:04:58;72.67;;;38.83;;
4210;SDS011;2119;48.828;12.396;2023-02-11T21:10:03;75.00;;;40.23;;
4210;SDS011;2119;48.828;12.396;2023-02-11T21:20:08;85.50;;;44.40;;
4210;SDS011;2119;48.828;12.396;2023-02-11T21:25:10;79.53;;;44.60;;
4210;SDS011;2119;48.828;12.396;2023-02-11T21:30:10;76.80;;;41.13;;
4210;SDS011;2119;48.828;12.396;2023-02-11T21:35:12;69.20;;;37.93;;
4210;SDS011;2119;48.828;12.396;2023-02-11T21:45:15;72.73;;;39.60;;
4210;SDS011;2119;48.828;12.396;2023-02-11T21:50:36;63.80;;;38.83;;
4210;SDS011;2119;48.828;12.396;2023-02-11T21:55:38;77.20;;;40.77;;
4210;SDS011;2119;48.828;12.396;2023-02-11T22:00:42;77.60;;;41.40;;
4210;SDS011;2119;48.828;12.396;2023-02-11T22:05:44;87.83;;;47.70;;
4210;SDS011;2119;48.828;12.396;2023-02-11T22:10:46;92.30;;;49.30;;
4210;SDS011;2119;48.828;12.396;2023-02-11T22:15:55;88.50;;;47.23;;
4210;SDS011;2119;48.828;12.396;2023-02-11T22:20:56;81.40;;;43.53;;
4210;SDS011;2119;48.828;12.396;2023-02-11T22:25:56;79.43;;;43.90;;
4210;SDS011;2119;48.828;12.396;2023-02-11T22:30:57;70.00;;;43.00;;
4210;SDS011;2119;48.828;12.396;2023-02-11T22:36:02;70.73;;;41.20;;
4210;SDS011;2119;48.828;12.396;2023-02-11T22:41:06;56.23;;;30.93;;
4210;SDS011;2119;48.828;12.396;2023-02-11T22:46:09;56.40;;;32.70;;
4210;SDS011;2119;48.828;12.396;2023-02-11T22:51:20;55.40;;;31.70;;
4210;SDS011;2119;48.828;12.396;2023-02-11T22:56:21;59.80;;;33.10;;
4210;SDS011;2119;48.828;12.396;2023-02-11T23:01:21;54.17;;;32.20;;
4210;SDS011;2119;48.828;12.396;2023-02-11T23:06:21;52.07;;;30.60;;
4210;SDS011;2119;48.828;12.396;2023-02-11T23:11:24;49.65;;;30.38;;
4210;SDS011;2119;48.828;12.396;2023-02-11T23:16:29;55.87;;;29.40;;
4210;SDS011;2119;48.828;12.396;2023-02-11T23:21:38;50.77;;;28.10;;
4210;SDS011;2119;48.828;12.396;2023-02-11T23:26:47;43.43;;;24.87;;
4210;SDS011;2119;48.828;12.396;2023-02-11T23:37:31;42.67;;;21.60;;
4210;SDS011;2119;48.828;12.396;2023-02-11T23:42:33;41.33;;;20.90;;
4210;SDS011;2119;48.828;12.396;2023-02-11T23:47:39;39.87;;;21.47;;
4210;SDS011;2119;48.828;12.396;2023-02-11T23:52:43;43.53;;;25.10;;
4210;SDS011;2119;48.828;12.396;2023-02-11T23:57:51;42.10;;;23.50;;
